Thorp, WI (54771)

3:08 PM CDT on September 27, 2016 (GMT -0500)
N Gilman Dr | | Change Station

Elev 1237 ft 45.17 °N, 90.82 °W | Updated 3 minutes ago

Light Rain
Light Rain
49.4 °F
Feels Like 48 °F
N
4.7
Wind Variable Wind from West
Gusts 10.1 mph

Today
High -- | Low -- °F
--% Chance of Precip.
Yesterday
High -- | Low -- °F
Precip. -- in
Pressure 29.69 in
Visibility 4.0 miles
Clouds Mostly Cloudy 900 ft
Mostly Cloudy 1300 ft
Overcast 1900 ft
Windchill 48 °F
Dew Point 45 °F
Humidity 86%
Rainfall 0.05 in
Snow Depth Not available.
6:56 AM 6:50 PM
Waning Crescent, 10% visible
METAR KMDZ 271955Z AUTO 28009G14KT 4SM -RA BKN009 BKN013 OVC019 09/09 A2969 RMK AO2 P0005 T00900090
Pressure 29.69 in
Visibility 4.0 miles
Clouds Mostly Cloudy 900 ft
Mostly Cloudy 1300 ft
Overcast 1900 ft
Windchill 48 °F
Dew Point 45 °F
Humidity 86%
Rainfall 0.05 in
Snow Depth Not available.
6:56 AM 6:50 PM
Waning Crescent, 10% visible
METAR KMDZ 271955Z AUTO 28009G14KT 4SM -RA BKN009 BKN013 OVC019 09/09 A2969 RMK AO2 P0005 T00900090

10-Day Weather Forecast

Almanac

Astronomy

Sep. 27, 2016 Rise Set
Actual Time
Civil Twilight
Nautical Twilight
Astronomical Twilight
Moon
Length of Visible Light
Length of Day
Tomorrow will be .
, % of the Moon is Illuminated

Today's Extremes

State Highs State Lows

Community

WunderPhotos

Upload Photos

1,942,167 photos uploaded!

WunderBlog® & News

Nearby

Air Quality

  Air Quality AQ Index Pollutant
Not available.

Snow Depth

Station Depth Elevation

Earthquake Activity

City Distance Mag. Time & Date
Minimum magnitude displayed is 2.5.

Coastal Water Temperatures

Place Temperature

Stations

Nearby Weather Stations

Station Location Temp. Windchill Dew Point Humidity Wind Precip. Elev Updated Type
                   

Watches & Warnings

There are currently no watches in effect.